createdAt,value
2023-01-08T00:00:08.517Z,33.20
2023-01-08T00:02:36.608Z,33.00
2023-01-08T00:05:06.844Z,32.90
2023-01-08T00:07:34.847Z,32.80
2023-01-08T00:10:02.887Z,33.00
2023-01-08T00:12:30.918Z,33.40
2023-01-08T00:14:58.988Z,33.80
2023-01-08T00:17:27.027Z,33.80
2023-01-08T00:19:55.064Z,33.50
2023-01-08T00:22:24.792Z,33.40
2023-01-08T00:24:52.793Z,33.40
2023-01-08T00:27:20.866Z,33.10
2023-01-08T00:29:48.943Z,33.00
2023-01-08T00:32:16.970Z,32.80
2023-01-08T00:34:45.079Z,32.80
2023-01-08T00:37:13.161Z,32.70
2023-01-08T00:39:42.687Z,33.20
2023-01-08T00:42:10.790Z,33.60
2023-01-08T00:44:38.844Z,34.00
2023-01-08T00:47:06.912Z,34.10
2023-01-08T00:49:34.947Z,34.30
2023-01-08T00:52:02.995Z,34.60
2023-01-08T00:54:31.131Z,34.30
2023-01-08T00:57:00.576Z,34.10
2023-01-08T00:59:28.624Z,33.90
2023-01-08T01:01:56.794Z,33.60
2023-01-08T01:04:26.513Z,33.60
2023-01-08T01:06:54.658Z,33.40
2023-01-08T01:09:22.710Z,33.20
2023-01-08T01:11:50.730Z,33.20
2023-01-08T01:14:20.201Z,33.20
2023-01-08T01:16:48.766Z,33.90
2023-01-08T01:19:16.903Z,34.10
2023-01-08T01:21:45.044Z,34.00
2023-01-08T01:24:13.736Z,33.70
2023-01-08T01:26:41.890Z,33.60
2023-01-08T01:29:09.955Z,33.40
2023-01-08T01:31:39.345Z,33.40
2023-01-08T01:34:07.428Z,33.10
2023-01-08T01:36:35.509Z,33.00
2023-01-08T01:39:03.556Z,32.90
2023-01-08T01:41:32.470Z,32.80
2023-01-08T01:44:01.209Z,33.30
2023-01-08T01:46:37.711Z,33.80
2023-01-08T01:49:11.662Z,34.00
2023-01-08T01:51:40.518Z,33.50
2023-01-08T01:54:09.222Z,33.50
2023-01-08T01:56:37.273Z,33.40
2023-01-08T01:59:05.383Z,33.20
2023-01-08T02:01:33.627Z,33.10
2023-01-08T02:04:01.847Z,32.90
2023-01-08T02:06:36.774Z,32.80
2023-01-08T02:09:07.415Z,32.70
2023-01-08T02:11:40.493Z,33.10
2023-01-08T02:14:11.386Z,33.60
2023-01-08T02:16:41.767Z,33.80
2023-01-08T02:19:15.764Z,33.60
2023-01-08T02:21:50.971Z,33.60
2023-01-08T02:24:21.742Z,33.40
2023-01-08T02:26:51.163Z,33.20
2023-01-08T02:29:19.892Z,33.00
2023-01-08T02:31:47.935Z,32.90
2023-01-08T02:34:16.066Z,32.80
2023-01-08T02:36:44.291Z,33.30
2023-01-08T02:39:16.360Z,32.90
2023-01-08T02:41:52.972Z,33.50
2023-01-08T02:44:23.186Z,33.70
2023-01-08T02:46:51.950Z,34.10
2023-01-08T02:49:19.949Z,34.20
2023-01-08T02:51:49.515Z,34.40
2023-01-08T02:54:19.467Z,34.50
2023-01-08T02:56:48.546Z,34.10
2023-01-08T02:59:18.144Z,33.90
2023-01-08T03:01:46.524Z,33.70
2023-01-08T03:04:16.015Z,33.50
2023-01-08T03:06:44.125Z,33.30
2023-01-08T03:09:12.141Z,33.20
2023-01-08T03:11:41.764Z,33.50
2023-01-08T03:14:11.213Z,33.00
2023-01-08T03:16:42.556Z,33.50
2023-01-08T03:19:13.337Z,34.00
2023-01-08T03:21:41.408Z,34.00
2023-01-08T03:24:09.776Z,33.60
2023-01-08T03:26:38.051Z,33.50
2023-01-08T03:29:06.057Z,33.40
2023-01-08T03:31:34.638Z,33.30
2023-01-08T03:34:04.062Z,33.20
2023-01-08T03:36:32.129Z,33.00
2023-01-08T03:39:01.363Z,32.90
2023-01-08T03:41:30.636Z,32.80
2023-01-08T03:43:58.727Z,33.20
2023-01-08T03:46:30.595Z,33.50
2023-01-08T03:48:58.804Z,33.90
2023-01-08T03:51:28.236Z,33.70
2023-01-08T03:53:59.580Z,33.40
2023-01-08T03:56:27.681Z,33.30
2023-01-08T03:58:55.714Z,33.10
2023-01-08T04:01:23.874Z,33.10
2023-01-08T04:03:52.017Z,32.90
2023-01-08T04:06:20.134Z,32.90
2023-01-08T04:08:49.909Z,32.80
2023-01-08T04:11:17.935Z,32.80
2023-01-08T04:13:45.945Z,33.20
2023-01-08T04:16:14.091Z,33.70
2023-01-08T04:18:42.114Z,33.80
2023-01-08T04:21:10.158Z,33.50
2023-01-08T04:23:38.170Z,33.30
2023-01-08T04:26:07.948Z,33.20
2023-01-08T04:28:36.460Z,33.10
2023-01-08T04:31:06.858Z,32.90
2023-01-08T04:33:34.926Z,32.80
2023-01-08T04:36:03.051Z,32.60
2023-01-08T04:38:31.114Z,32.60
2023-01-08T04:40:59.484Z,33.20
2023-01-08T04:43:28.942Z,33.50
2023-01-08T04:45:58.939Z,33.90
2023-01-08T04:48:27.051Z,34.10
2023-01-08T04:50:55.193Z,34.30
2023-01-08T04:53:23.301Z,34.40
2023-01-08T04:55:51.352Z,34.20
2023-01-08T04:58:19.565Z,34.00
2023-01-08T05:00:49.014Z,33.80
2023-01-08T05:03:17.122Z,33.60
2023-01-08T05:05:45.199Z,33.40
2023-01-08T05:08:13.301Z,33.20
2023-01-08T05:10:41.334Z,33.10
2023-01-08T05:13:09.375Z,33.00
2023-01-08T05:15:37.492Z,33.20
2023-01-08T05:18:07.120Z,33.50
2023-01-08T05:20:35.342Z,33.90
2023-01-08T05:23:03.371Z,34.00
2023-01-08T05:25:31.436Z,33.60
2023-01-08T05:27:59.456Z,33.50
2023-01-08T05:30:27.507Z,33.30
2023-01-08T05:32:55.539Z,33.10
2023-01-08T05:35:25.007Z,33.10
2023-01-08T05:37:53.052Z,32.90
2023-01-08T05:40:21.124Z,32.80
2023-01-08T05:42:49.145Z,32.70
2023-01-08T05:45:17.537Z,33.20
2023-01-08T05:47:45.568Z,33.60
2023-01-08T05:50:13.703Z,33.90
2023-01-08T05:52:43.144Z,33.50
2023-01-08T05:55:11.284Z,33.50
2023-01-08T05:57:39.301Z,33.30
2023-01-08T06:00:08.447Z,33.20
2023-01-08T06:02:36.592Z,33.00
2023-01-08T06:05:05.064Z,32.80
2023-01-08T06:07:33.112Z,32.80
2023-01-08T06:10:02.484Z,32.60
2023-01-08T06:12:30.567Z,32.90
2023-01-08T06:14:58.615Z,33.40
2023-01-08T06:17:26.625Z,33.70
2023-01-08T06:19:54.638Z,33.60
2023-01-08T06:22:22.985Z,33.30
2023-01-08T06:24:51.023Z,33.30
2023-01-08T06:27:20.406Z,33.20
2023-01-08T06:29:48.415Z,33.00
2023-01-08T06:32:16.452Z,32.80
2023-01-08T06:34:44.476Z,32.80
2023-01-08T06:37:12.519Z,32.70
2023-01-08T06:39:40.531Z,32.60
2023-01-08T06:42:08.562Z,33.10
2023-01-08T06:44:38.281Z,33.50
2023-01-08T06:47:06.474Z,33.80
2023-01-08T06:49:34.542Z,34.10
2023-01-08T06:52:02.615Z,34.30
2023-01-08T06:54:30.659Z,34.50
2023-01-08T06:56:58.703Z,34.20
2023-01-08T06:59:26.747Z,33.90
2023-01-08T07:01:56.357Z,33.80
2023-01-08T07:04:24.727Z,33.50
2023-01-08T07:06:52.744Z,33.40
2023-01-08T07:09:20.776Z,33.30
2023-01-08T07:11:48.853Z,33.10
2023-01-08T07:14:16.851Z,33.00
2023-01-08T07:16:44.909Z,33.20
2023-01-08T07:19:14.705Z,33.80
2023-01-08T07:21:42.756Z,34.20
2023-01-08T07:24:10.957Z,33.90
2023-01-08T07:26:39.683Z,33.60
2023-01-08T07:29:07.832Z,33.40
2023-01-08T07:31:35.961Z,33.30
2023-01-08T07:34:04.072Z,33.20
2023-01-08T07:36:33.963Z,33.00
2023-01-08T07:39:02.044Z,32.90
2023-01-08T07:41:30.144Z,32.80
2023-01-08T07:43:58.171Z,32.90
2023-01-08T07:46:26.235Z,33.40
2023-01-08T07:48:54.280Z,33.80
2023-01-08T07:51:22.410Z,33.80
2023-01-08T07:53:52.442Z,33.40
2023-01-08T07:56:20.475Z,33.30
2023-01-08T07:58:48.493Z,33.20
2023-01-08T08:01:16.556Z,33.00
2023-01-08T08:03:45.054Z,33.00
2023-01-08T08:06:13.084Z,32.80
2023-01-08T08:08:42.309Z,32.70
2023-01-08T08:11:12.944Z,32.50
2023-01-08T08:13:44.875Z,33.10
2023-01-08T08:16:13.305Z,33.50
2023-01-08T08:18:41.441Z,33.80
2023-01-08T08:21:09.518Z,33.60
2023-01-08T08:23:37.599Z,33.40
2023-01-08T08:26:05.945Z,33.20
2023-01-08T08:28:35.384Z,33.00
2023-01-08T08:31:03.525Z,33.00
2023-01-08T08:33:31.599Z,32.80
2023-01-08T08:35:59.624Z,32.70
2023-01-08T08:38:27.682Z,32.60
2023-01-08T08:40:55.765Z,32.90
2023-01-08T08:43:23.809Z,33.10
2023-01-08T08:45:53.198Z,33.70
2023-01-08T08:48:21.229Z,33.90
2023-01-08T08:50:49.252Z,34.10
2023-01-08T08:53:17.721Z,34.20
2023-01-08T08:55:45.709Z,34.30
2023-01-08T08:58:14.374Z,33.90
2023-01-08T09:00:43.217Z,33.80
2023-01-08T09:03:15.605Z,33.60
2023-01-08T09:05:44.028Z,33.50
2023-01-08T09:08:12.175Z,33.20
2023-01-08T09:10:42.331Z,33.10
2023-01-08T09:13:10.507Z,33.00
2023-01-08T09:15:38.591Z,32.80
2023-01-08T09:18:06.784Z,33.40
2023-01-08T09:20:36.209Z,33.80
2023-01-08T09:23:04.308Z,33.90
2023-01-08T09:25:32.425Z,33.70
2023-01-08T09:28:01.456Z,33.50
2023-01-08T09:30:29.658Z,33.40
2023-01-08T09:33:00.300Z,33.20
2023-01-08T09:35:30.276Z,33.00
2023-01-08T09:38:00.009Z,33.00
2023-01-08T09:40:29.764Z,32.90
2023-01-08T09:42:59.345Z,32.80
2023-01-08T09:45:29.294Z,33.00
2023-01-08T09:47:57.555Z,33.30
2023-01-08T09:50:25.749Z,33.80
2023-01-08T09:52:53.826Z,33.80
2023-01-08T09:55:23.218Z,33.40
2023-01-08T09:57:51.212Z,33.30
2023-01-08T10:00:22.477Z,33.10
2023-01-08T10:02:50.622Z,33.00
2023-01-08T10:05:19.174Z,32.90
2023-01-08T10:07:47.240Z,32.70
2023-01-08T10:10:20.745Z,32.60
2023-01-08T10:12:50.387Z,32.70
2023-01-08T10:15:19.743Z,33.00
2023-01-08T10:17:49.291Z,33.50
2023-01-08T10:20:18.176Z,33.70
2023-01-08T10:22:47.693Z,33.30
2023-01-08T10:25:16.774Z,33.20
2023-01-08T10:27:48.542Z,33.00
2023-01-08T10:30:19.343Z,33.00
2023-01-08T10:32:48.939Z,32.80
2023-01-08T10:35:18.311Z,32.70
2023-01-08T10:37:50.320Z,32.50
2023-01-08T10:40:29.587Z,32.50
2023-01-08T10:42:58.063Z,33.00
2023-01-08T10:45:28.628Z,33.40
2023-01-08T10:47:58.397Z,33.90
2023-01-08T10:50:27.473Z,34.10
2023-01-08T10:52:56.783Z,34.20
2023-01-08T10:55:26.910Z,34.40
2023-01-08T10:57:58.800Z,34.10
2023-01-08T11:00:30.136Z,33.80
2023-01-08T11:02:59.768Z,33.60
2023-01-08T11:05:33.763Z,33.40
2023-01-08T11:08:02.248Z,33.30
2023-01-08T11:10:30.469Z,33.00
2023-01-08T11:13:00.162Z,33.00
2023-01-08T11:15:34.523Z,32.90
2023-01-08T11:18:14.041Z,33.20
2023-01-08T11:20:43.013Z,33.50
2023-01-08T11:23:16.655Z,34.00
2023-01-08T11:25:46.312Z,33.80
2023-01-08T11:28:16.769Z,33.50
2023-01-08T11:30:51.109Z,33.40
2023-01-08T11:33:19.966Z,33.20
2023-01-08T11:35:49.913Z,33.10
2023-01-08T11:38:17.954Z,32.90
2023-01-08T11:40:49.474Z,32.80
2023-01-08T11:43:26.310Z,32.70
2023-01-08T11:46:04.976Z,32.90
2023-01-08T11:49:10.760Z,33.10
2023-01-08T11:51:44.932Z,33.70
2023-01-08T11:54:21.442Z,33.50
2023-01-08T11:56:58.576Z,33.30
2023-01-08T11:59:29.328Z,33.10
2023-01-08T12:02:02.330Z,33.10
2023-01-08T12:04:56.740Z,32.90
2023-01-08T12:07:26.136Z,32.80
2023-01-08T12:09:56.959Z,32.60
2023-01-08T12:12:36.362Z,32.50
2023-01-08T12:15:08.948Z,33.00
2023-01-08T12:17:46.304Z,33.30
2023-01-08T12:20:20.340Z,33.40
2023-01-08T12:22:52.881Z,33.40
2023-01-08T12:25:53.747Z,33.20
2023-01-08T12:28:45.299Z,33.00
2023-01-08T12:31:25.662Z,33.00
2023-01-08T12:33:55.707Z,32.80
2023-01-08T12:36:26.049Z,32.70
2023-01-08T12:38:55.364Z,32.50
2023-01-08T12:41:23.432Z,32.50
2023-01-08T12:43:54.026Z,32.90
2023-01-08T12:46:22.076Z,33.40
2023-01-08T12:48:52.098Z,33.80
2023-01-08T12:51:27.229Z,34.00
2023-01-08T12:53:57.456Z,34.30
2023-01-08T12:56:28.006Z,34.40
2023-01-08T12:59:05.623Z,34.00
2023-01-08T13:01:37.889Z,33.80
2023-01-08T13:04:06.169Z,33.60
2023-01-08T13:06:35.603Z,33.40
2023-01-08T13:09:03.668Z,33.30
2023-01-08T13:11:32.958Z,33.20
2023-01-08T13:14:02.382Z,33.00
2023-01-08T13:16:31.862Z,32.90
2023-01-08T13:19:00.597Z,33.30
2023-01-08T13:21:33.784Z,33.40
2023-01-08T13:24:04.701Z,34.50
2023-01-08T13:26:33.249Z,33.60
2023-01-08T13:29:26.614Z,33.50
2023-01-08T13:31:54.710Z,33.30
2023-01-08T13:34:24.353Z,33.20
2023-01-08T13:37:00.340Z,33.00
2023-01-08T13:39:35.679Z,32.90
2023-01-08T13:42:22.739Z,32.70
2023-01-08T13:44:51.523Z,32.70
2023-01-08T13:47:29.728Z,33.10
2023-01-08T13:49:58.771Z,33.30
2023-01-08T13:52:43.334Z,33.50
2023-01-08T13:55:17.873Z,33.40
2023-01-08T13:57:47.788Z,33.30
2023-01-08T14:00:23.168Z,33.20
2023-01-08T14:02:51.298Z,33.00
2023-01-08T14:05:22.565Z,32.90
2023-01-08T14:07:50.693Z,32.80
2023-01-08T14:10:20.366Z,32.60
2023-01-08T14:12:48.401Z,32.50
2023-01-08T14:15:21.069Z,32.90
2023-01-08T14:17:49.093Z,33.30
2023-01-08T14:20:22.241Z,33.50
2023-01-08T14:22:50.278Z,33.40
2023-01-08T14:25:20.264Z,33.20
2023-01-08T14:27:58.670Z,33.10
2023-01-08T14:30:27.148Z,33.00
2023-01-08T14:32:55.585Z,32.80
2023-01-08T14:35:28.056Z,32.70
2023-01-08T14:37:56.294Z,32.60
2023-01-08T14:40:33.312Z,32.50
2023-01-08T14:43:04.791Z,32.70
2023-01-08T14:45:34.384Z,33.10
2023-01-08T14:48:03.888Z,33.40
2023-01-08T14:50:33.883Z,34.00
2023-01-08T14:53:06.047Z,34.10
2023-01-08T14:55:35.680Z,34.30
2023-01-08T14:58:03.933Z,34.30
2023-01-08T15:00:31.966Z,33.80
2023-01-08T15:02:59.996Z,33.70
2023-01-08T15:05:29.097Z,33.50
2023-01-08T15:08:00.078Z,33.40
2023-01-08T15:10:47.516Z,33.20
2023-01-08T15:13:25.414Z,33.10
2023-01-08T15:15:55.996Z,32.90
2023-01-08T15:18:24.096Z,33.10
2023-01-08T15:20:52.410Z,33.20
2023-01-08T15:23:25.986Z,33.50
2023-01-08T15:25:55.899Z,33.90
2023-01-08T15:28:25.157Z,33.40
2023-01-08T15:30:53.276Z,33.40
2023-01-08T15:33:22.232Z,33.20
2023-01-08T15:35:50.471Z,33.00
2023-01-08T15:38:20.741Z,32.90
2023-01-08T15:40:49.174Z,32.80
2023-01-08T15:43:17.953Z,32.80
2023-01-08T15:45:46.780Z,32.70
2023-01-08T15:48:14.966Z,33.20
2023-01-08T15:50:44.348Z,33.40
2023-01-08T15:53:15.804Z,33.40
2023-01-08T15:55:45.236Z,33.40
2023-01-08T15:58:13.683Z,33.30
2023-01-08T16:00:43.722Z,33.10
2023-01-08T16:03:12.656Z,33.00
2023-01-08T16:05:40.723Z,32.90
2023-01-08T16:08:08.807Z,32.70
2023-01-08T16:10:37.448Z,32.60
2023-01-08T16:13:05.526Z,32.60
2023-01-08T16:15:33.526Z,32.90
2023-01-08T16:18:02.993Z,33.40
2023-01-08T16:20:31.007Z,34.30
2023-01-08T16:22:59.064Z,33.50
2023-01-08T16:25:27.108Z,33.30
2023-01-08T16:27:55.378Z,33.20
2023-01-08T16:30:23.506Z,33.10
2023-01-08T16:32:52.620Z,32.90
2023-01-08T16:35:22.774Z,32.70
2023-01-08T16:37:50.985Z,32.70
2023-01-08T16:40:19.337Z,32.50
2023-01-08T16:42:47.365Z,32.70
2023-01-08T16:45:15.433Z,33.00
2023-01-08T16:47:43.540Z,33.40
2023-01-08T16:50:12.379Z,33.90
2023-01-08T16:52:41.735Z,34.10
2023-01-08T16:55:11.572Z,34.30
2023-01-08T16:57:39.577Z,34.30
2023-01-08T17:00:09.067Z,33.90
2023-01-08T17:02:38.059Z,33.80
2023-01-08T17:05:07.109Z,33.60
2023-01-08T17:07:35.285Z,33.40
2023-01-08T17:10:05.377Z,33.20
2023-01-08T17:12:33.368Z,33.20
2023-01-08T17:15:01.426Z,33.00
2023-01-08T17:17:29.451Z,32.90
2023-01-08T17:19:57.493Z,33.30
2023-01-08T17:22:25.562Z,33.50
2023-01-08T17:24:53.679Z,33.90
2023-01-08T17:27:23.076Z,33.80
2023-01-08T17:29:51.111Z,33.50
2023-01-08T17:32:19.106Z,33.30
2023-01-08T17:34:47.130Z,33.20
2023-01-08T17:37:15.180Z,33.10
2023-01-08T17:39:43.841Z,32.90
2023-01-08T17:42:26.727Z,32.80
2023-01-08T17:44:57.125Z,32.70
2023-01-08T17:47:25.325Z,33.00
2023-01-08T17:49:53.749Z,33.30
2023-01-08T17:52:22.784Z,33.70
2023-01-08T17:54:50.881Z,33.70
2023-01-08T17:57:19.295Z,33.30
2023-01-08T17:59:47.459Z,33.20
2023-01-08T18:02:18.145Z,33.00
2023-01-08T18:04:46.545Z,33.00
2023-01-08T18:07:14.616Z,32.80
2023-01-08T18:09:42.699Z,32.80
2023-01-08T18:12:11.821Z,32.70
2023-01-08T18:14:41.454Z,32.70
2023-01-08T18:17:10.531Z,33.00
2023-01-08T18:19:39.968Z,33.50
2023-01-08T18:22:08.035Z,33.50
2023-01-08T18:24:36.037Z,33.30
2023-01-08T18:27:04.152Z,33.20
2023-01-08T18:29:32.166Z,33.10
2023-01-08T18:32:00.312Z,32.90
2023-01-08T18:34:28.710Z,32.90
2023-01-08T18:36:58.246Z,32.70
2023-01-08T18:39:28.369Z,32.60
2023-01-08T18:42:14.019Z,32.50
2023-01-08T18:44:42.302Z,33.00
2023-01-08T18:47:12.450Z,33.30
2023-01-08T18:49:40.573Z,33.80
2023-01-08T18:52:11.152Z,33.90
2023-01-08T18:54:39.300Z,34.10
2023-01-08T18:57:07.539Z,34.40
2023-01-08T18:59:35.609Z,34.00
2023-01-08T19:02:03.699Z,33.90
2023-01-08T19:04:31.883Z,33.60
2023-01-08T19:07:00.295Z,33.40
2023-01-08T19:09:29.876Z,33.40
2023-01-08T19:11:57.989Z,33.20
2023-01-08T19:14:26.944Z,33.00
2023-01-08T19:16:55.066Z,32.90
2023-01-08T19:19:23.180Z,33.00
2023-01-08T19:21:51.299Z,33.40
2023-01-08T19:24:19.346Z,33.90
2023-01-08T19:26:48.764Z,33.80
2023-01-08T19:29:16.827Z,33.40
2023-01-08T19:31:44.938Z,33.30
2023-01-08T19:34:13.099Z,33.30
2023-01-08T19:36:43.670Z,33.10
2023-01-08T19:39:12.426Z,32.90
2023-01-08T19:41:58.269Z,32.80
2023-01-08T19:44:27.923Z,32.70
2023-01-08T19:46:55.965Z,32.70
2023-01-08T19:49:25.720Z,33.10
2023-01-08T19:51:53.773Z,33.60
2023-01-08T19:54:23.744Z,33.70
2023-01-08T19:56:51.860Z,33.30
2023-01-08T19:59:19.926Z,33.30
2023-01-08T20:01:49.880Z,33.10
2023-01-08T20:04:18.133Z,33.00
2023-01-08T20:06:46.211Z,32.90
2023-01-08T20:09:14.271Z,32.70
2023-01-08T20:11:42.343Z,32.60
2023-01-08T20:14:10.425Z,32.50
2023-01-08T20:16:38.488Z,32.90
2023-01-08T20:19:08.142Z,33.30
2023-01-08T20:21:36.181Z,33.70
2023-01-08T20:24:08.819Z,33.40
2023-01-08T20:26:37.125Z,33.20
2023-01-08T20:29:05.262Z,33.10
2023-01-08T20:31:34.528Z,32.90
2023-01-08T20:34:04.103Z,32.90
2023-01-08T20:36:34.299Z,32.70
2023-01-08T20:39:04.403Z,32.60
2023-01-08T20:41:32.478Z,32.50
2023-01-08T20:44:01.949Z,32.70
2023-01-08T20:46:30.332Z,33.00
2023-01-08T20:48:59.720Z,33.50
2023-01-08T20:51:27.854Z,33.80
2023-01-08T20:53:57.249Z,34.10
2023-01-08T20:56:25.282Z,34.20
2023-01-08T20:58:53.342Z,34.30
2023-01-08T21:01:23.014Z,34.00
2023-01-08T21:03:51.626Z,33.70
2023-01-08T21:06:20.420Z,33.50
2023-01-08T21:08:50.277Z,33.40
2023-01-08T21:11:20.005Z,33.30
2023-01-08T21:13:48.067Z,33.00
2023-01-08T21:16:18.110Z,32.90
2023-01-08T21:18:47.602Z,32.80
2023-01-08T21:21:16.482Z,33.30
2023-01-08T21:23:44.698Z,33.60
2023-01-08T21:26:12.868Z,33.80
2023-01-08T21:28:42.411Z,33.50
2023-01-08T21:31:11.305Z,33.40
2023-01-08T21:33:39.597Z,33.30
2023-01-08T21:36:08.587Z,33.10
2023-01-08T21:38:36.884Z,32.90
2023-01-08T21:41:07.448Z,32.80
2023-01-08T21:43:53.565Z,32.70
2023-01-08T21:46:25.396Z,32.60
2023-01-08T21:48:53.470Z,33.00
2023-01-08T21:51:38.779Z,33.20
2023-01-08T21:54:07.007Z,33.70
2023-01-08T21:56:35.109Z,33.50
2023-01-08T21:59:03.190Z,33.30
2023-01-08T22:01:32.671Z,33.10
2023-01-08T22:04:00.761Z,33.00
2023-01-08T22:06:28.834Z,32.90
2023-01-08T22:08:57.094Z,32.70
2023-01-08T22:11:25.141Z,32.60
2023-01-08T22:13:53.198Z,32.50
2023-01-08T22:16:21.313Z,32.80
2023-01-08T22:18:50.790Z,33.10
2023-01-08T22:21:18.892Z,33.60
2023-01-08T22:23:46.911Z,33.60
2023-01-08T22:26:15.179Z,33.20
2023-01-08T22:28:43.319Z,33.10
2023-01-08T22:31:12.592Z,33.00
2023-01-08T22:33:40.835Z,32.80
2023-01-08T22:36:12.080Z,32.70
2023-01-08T22:38:40.274Z,32.60
2023-01-08T22:41:12.106Z,32.50
2023-01-08T22:43:40.180Z,32.60
2023-01-08T22:46:08.292Z,33.00
2023-01-08T22:48:37.414Z,33.40
2023-01-08T22:51:05.552Z,33.70
2023-01-08T22:53:34.993Z,34.00
2023-01-08T22:56:03.600Z,34.10
2023-01-08T22:58:31.625Z,34.20
2023-01-08T23:01:00.145Z,33.90
2023-01-08T23:03:29.317Z,33.80
2023-01-08T23:06:02.251Z,33.50
2023-01-08T23:08:30.362Z,33.40
2023-01-08T23:10:59.902Z,33.20
2023-01-08T23:13:27.964Z,33.00
2023-01-08T23:15:56.015Z,32.90
2023-01-08T23:18:24.088Z,33.40
2023-01-08T23:20:52.402Z,33.10
2023-01-08T23:23:20.464Z,33.60
2023-01-08T23:25:48.511Z,33.90
2023-01-08T23:28:17.897Z,33.60
2023-01-08T23:30:45.996Z,33.40
2023-01-08T23:33:14.009Z,33.30
2023-01-08T23:35:42.661Z,33.10
2023-01-08T23:38:10.705Z,33.00
2023-01-08T23:40:38.785Z,32.80
2023-01-08T23:43:06.837Z,32.70
2023-01-08T23:45:37.396Z,32.60
2023-01-08T23:48:05.563Z,32.80
2023-01-08T23:50:33.598Z,33.10
2023-01-08T23:53:01.692Z,33.60
2023-01-08T23:55:29.927Z,33.60
2023-01-08T23:57:58.048Z,33.20
